My Meet Scores
Gwenyth Perry, St. Charles Gymnastics Academy - MyMeetScores.com
Top100 | Top Teams | Upcoming Meets | Completed Meets | Latest | Add Scores | Help| Support | Bookmark and Share

Gwenyth Perry, St. Charles Gymnastics Academy
Personal Bests
LevelVault BarsBeamFloorAA
49.3509.700 9.6509.42537.675
69.0259.250 9.4259.75036.650
Meet Scores
Date Meet Team Session Level Division Vault Bars Beam Floor AA
2019-03-15 Illinois State Championship Level 6,9,10 St. Charles Gymnastics Academy 12 6 Jr F 8.650 21 8.750 15 9.400 7T 9.750 1 36.550 14T
2019-02-15 Women's Midwest Open St. Charles Gymnastics Academy 01 6 Junior A 8.650 5 8.950 7T 9.350 3 9.425 8T 36.375 5
2019-01-25 Metroplex Challenge St. Charles Gymnastics Academy R05 6 Jr B 8.325 18 9.050 10T 9.150 11T 9.350 13T 35.875 12
2019-01-11 St Jude Benefit Meet St. Charles Gymnastics Academy 2B 6 Jr B 8.275 14 9.250 7 9.400 2 9.725 2T 36.650 6
2018-12-07 St. Nick Invite 2018 St. Charles Gymnastics Academy 2 6 JrB 9.025 6 8.575 11 9.425 2 9.625 1T 36.650 4
2018-03-08 Level 4 & 5 State St. Charles Gymnastics Academy All 4 Jr C 9.025 6T 8.875 10 9.500 5 9.250 8 36.650 6
2018-02-23 Kinetic Classic St. Charles Gymnastics Academy 7 4 Older 8.950 7T 9.125 21T 9.500 7 9.200 33T 36.775 7
2018-02-16 Big Classic St. Charles Gymnastics Academy 7B 4 Child D 9.150 3 9.450 2 9.650 1 9.425 2 37.675 2
2018-01-26 King Arthur Invitational St. Charles Gymnastics Academy 6 4 SR A 9.350 1T 9.400 2 9.525 1 9.250 1 37.525 1
2018-01-12 St Jude Benefit Meet St. Charles Gymnastics Academy 2A 4 SrA 8.950 3 9.700 2 9.500 2 9.100 7T 37.250 1
2017-12-14 2017 Women's Hawaiian Pineapple Classic St. Charles Gymnastics Academy 6A 4 Age10 9.000 1 9.075 3 8.650 4 9.000 2 35.725 2
2017-12-01 Ultimate Wish Classic St. Charles Gymnastics Academy 6 4 Sr A 8.875 2 9.225 4 9.625 1 9.250 3 36.975 1
2017-11-17 SCGA Classic St. Charles Gymnastics Academy 2 4 JrB 9.225 5 9.025 5 9.150 4 9.100 6 36.500 5
2017-03-10 2017 Illinois Level 4 State Championships St. Charles Gymnastics Academy 2 4 Ch F 8.700 18T 8.000 27T 9.375 6 8.675 19T 34.750 22
2017-02-24 Kinetic Classic St. Charles Gymnastics Academy 5,6 4 All Ages 8.150 108T 7.950 108T 9.150 59T 8.900 71 34.150 99T
2017-02-10 IGI Chicago Style Gymnastics Meet St. Charles Gymnastics Academy 621L 4 JrA 8.150 16 7.750 16 8.900 13 8.350 14 33.150 14
2017-01-20 2017 Bravo Classic St. Charles Gymnastics Academy 06B 4 9yrs 8.500 7T 8.175 16 9.175 8 8.750 13 34.600 13
2017-01-13 St Jude Benefit Meet St. Charles Gymnastics Academy 3A 4 Jr B 8.200 8 7.450 14 9.125 8 8.825 7 33.600 11
2016-12-15 2016 Hawaiian Pineapple Sanction St. Charles Gymnastics Academy 9A 4 Age 9 8.900 6 7.850 15 9.025 14T 8.600 18 34.375 14
2016-12-02 Ultimate Wish Classic St. Charles Gymnastics Academy 13 4 Jr B 8.600 8 7.000 18 8.850 12 8.550 17T 33.000 15
Get your scores on
a t-shirt, pin, or hoodie

www.lazysuits.com